sensor_id;sensor_type;location;lat;lon;timestamp;pressure;altitude;pressure_sealevel;temperature;humidity
13968;BME280;39536;52.198;9.920;2024-01-30T00:00:19;101943.34;;;7.79;100.00
13968;BME280;39536;52.198;9.920;2024-01-30T00:02:46;101944.22;;;7.86;100.00
13968;BME280;39536;52.198;9.920;2024-01-30T00:05:13;101938.19;;;7.85;100.00
13968;BME280;39536;52.198;9.920;2024-01-30T00:07:41;101937.28;;;7.88;100.00
13968;BME280;39536;52.198;9.920;2024-01-30T00:10:08;101938.19;;;7.89;100.00
13968;BME280;39536;52.198;9.920;2024-01-30T00:12:34;101940.75;;;7.84;100.00
13968;BME280;39536;52.198;9.920;2024-01-30T00:15:01;101937.31;;;7.76;100.00
13968;BME280;39536;52.198;9.920;2024-01-30T00:17:29;101934.69;;;7.77;100.00
13968;BME280;39536;52.198;9.920;2024-01-30T00:19:56;101938.16;;;7.79;100.00
13968;BME280;39536;52.198;9.920;2024-01-30T00:22:22;101933.84;;;7.84;100.00
13968;BME280;39536;52.198;9.920;2024-01-30T00:24:50;101932.97;;;7.90;100.00
13968;BME280;39536;52.198;9.920;2024-01-30T00:27:17;101931.25;;;7.89;100.00
13968;BME280;39536;52.198;9.920;2024-01-30T00:29:43;101936.44;;;7.89;100.00
13968;BME280;39536;52.198;9.920;2024-01-30T00:32:10;101939.88;;;7.91;100.00
13968;BME280;39536;52.198;9.920;2024-01-30T00:34:37;101941.63;;;7.91;100.00
13968;BME280;39536;52.198;9.920;2024-01-30T00:37:03;101936.44;;;7.89;100.00
13968;BME280;39536;52.198;9.920;2024-01-30T00:39:30;101936.44;;;7.89;100.00
13968;BME280;39536;52.198;9.920;2024-01-30T00:41:58;101933.84;;;7.91;100.00
13968;BME280;39536;52.198;9.920;2024-01-30T00:44:24;101935.56;;;7.84;100.00
13968;BME280;39536;52.198;9.920;2024-01-30T00:46:51;101938.16;;;7.81;100.00
13968;BME280;39536;52.198;9.920;2024-01-30T00:49:18;101934.72;;;7.86;100.00
13968;BME280;39536;52.198;9.920;2024-01-30T00:51:44;101930.38;;;7.87;100.00
13968;BME280;39536;52.198;9.920;2024-01-30T00:54:11;101933.84;;;7.94;100.00
13968;BME280;39536;52.198;9.920;2024-01-30T00:56:37;101927.78;;;7.90;100.00
13968;BME280;39536;52.198;9.920;2024-01-30T00:59:05;101932.97;;;7.78;100.00
13968;BME280;39536;52.198;9.920;2024-01-30T01:01:32;101935.56;;;7.82;100.00
13968;BME280;39536;52.198;9.920;2024-01-30T01:03:58;101932.13;;;7.85;100.00
13968;BME280;39536;52.198;9.920;2024-01-30T01:06:25;101937.31;;;7.85;100.00
13968;BME280;39536;52.198;9.920;2024-01-30T01:08:51;101935.56;;;7.81;100.00
13968;BME280;39536;52.198;9.920;2024-01-30T01:11:18;101938.13;;;7.66;100.00
13968;BME280;39536;52.198;9.920;2024-01-30T01:13:44;101939.84;;;7.54;100.00
13968;BME280;39536;52.198;9.920;2024-01-30T01:16:12;101949.34;;;7.52;100.00
13968;BME280;39536;52.198;9.920;2024-01-30T01:18:39;101941.56;;;7.57;100.00
13968;BME280;39536;52.198;9.920;2024-01-30T01:21:05;101946.78;;;7.61;100.00
13968;BME280;39536;52.198;9.920;2024-01-30T01:23:32;101949.34;;;7.55;100.00
13968;BME280;39536;52.198;9.920;2024-01-30T01:25:58;101945.91;;;7.55;100.00
13968;BME280;39536;52.198;9.920;2024-01-30T01:28:26;101939.84;;;7.48;100.00
13968;BME280;39536;52.198;9.920;2024-01-30T01:30:53;101935.50;;;7.43;100.00
13968;BME280;39536;52.198;9.920;2024-01-30T01:33:25;101937.22;;;7.42;100.00
13968;BME280;39536;52.198;9.920;2024-01-30T01:35:52;101932.03;;;7.39;100.00
13968;BME280;39536;52.198;9.920;2024-01-30T01:38:18;101926.81;;;7.30;100.00
13968;BME280;39536;52.198;9.920;2024-01-30T01:40:45;101923.38;;;7.32;100.00
13968;BME280;39536;52.198;9.920;2024-01-30T01:43:11;101921.66;;;7.36;100.00
13968;BME280;39536;52.198;9.920;2024-01-30T01:45:38;101922.50;;;7.38;100.00
13968;BME280;39536;52.198;9.920;2024-01-30T01:48:05;101929.41;;;7.36;100.00
13968;BME280;39536;52.198;9.920;2024-01-30T01:50:36;101927.69;;;7.44;100.00
13968;BME280;39536;52.198;9.920;2024-01-30T01:53:03;101937.22;;;7.53;100.00
13968;BME280;39536;52.198;9.920;2024-01-30T01:55:31;101928.59;;;7.57;100.00
13968;BME280;39536;52.198;9.920;2024-01-30T01:57:58;101921.72;;;7.60;100.00
13968;BME280;39536;52.198;9.920;2024-01-30T02:00:25;101920.84;;;7.68;100.00
13968;BME280;39536;52.198;9.920;2024-01-30T02:02:52;101913.97;;;7.76;100.00
13968;BME280;39536;52.198;9.920;2024-01-30T02:05:20;101911.38;;;7.76;100.00
13968;BME280;39536;52.198;9.920;2024-01-30T02:07:49;101908.78;;;7.76;100.00
13968;BME280;39536;52.198;9.920;2024-01-30T02:10:17;101907.03;;;7.78;100.00
13968;BME280;39536;52.198;9.920;2024-01-30T02:12:43;101913.09;;;7.77;100.00
13968;BME280;39536;52.198;9.920;2024-01-30T02:15:13;101909.63;;;7.78;100.00
13968;BME280;39536;52.198;9.920;2024-01-30T02:17:39;101907.03;;;7.78;100.00
13968;BME280;39536;52.198;9.920;2024-01-30T02:20:06;101901.84;;;7.82;100.00
13968;BME280;39536;52.198;9.920;2024-01-30T02:22:36;101904.44;;;7.84;100.00
13968;BME280;39536;52.198;9.920;2024-01-30T02:25:04;101901.84;;;7.82;100.00
13968;BME280;39536;52.198;9.920;2024-01-30T02:27:30;101911.34;;;7.71;100.00
13968;BME280;39536;52.198;9.920;2024-01-30T02:29:57;101906.16;;;7.74;100.00
13968;BME280;39536;52.198;9.920;2024-01-30T02:32:24;101894.91;;;7.71;100.00
13968;BME280;39536;52.198;9.920;2024-01-30T02:34:50;101896.66;;;7.78;100.00
13968;BME280;39536;52.198;9.920;2024-01-30T02:37:17;101885.41;;;7.80;100.00
13968;BME280;39536;52.198;9.920;2024-01-30T02:39:45;101889.72;;;7.81;100.00
13968;BME280;39536;52.198;9.920;2024-01-30T02:42:11;101876.75;;;7.81;100.00
13968;BME280;39536;52.198;9.920;2024-01-30T02:44:38;101881.06;;;7.72;100.00
13968;BME280;39536;52.198;9.920;2024-01-30T02:47:04;101881.09;;;7.70;100.00
13968;BME280;39536;52.198;9.920;2024-01-30T02:49:31;101883.69;;;7.70;100.00
13968;BME280;39536;52.198;9.920;2024-01-30T02:51:57;101874.16;;;7.66;100.00
13968;BME280;39536;52.198;9.920;2024-01-30T02:54:24;101875.88;;;7.69;100.00
13968;BME280;39536;52.198;9.920;2024-01-30T02:56:52;101874.16;;;7.69;100.00
13968;BME280;39536;52.198;9.920;2024-01-30T02:59:18;101863.78;;;7.68;100.00
13968;BME280;39536;52.198;9.920;2024-01-30T03:01:45;101861.19;;;7.64;100.00
13968;BME280;39536;52.198;9.920;2024-01-30T03:04:13;101859.47;;;7.65;100.00
13968;BME280;39536;52.198;9.920;2024-01-30T03:06:44;101860.31;;;7.66;100.00
13968;BME280;39536;52.198;9.920;2024-01-30T03:09:11;101867.25;;;7.62;100.00
13968;BME280;39536;52.198;9.920;2024-01-30T03:11:38;101862.94;;;7.58;100.00
13968;BME280;39536;52.198;9.920;2024-01-30T03:14:06;101861.19;;;7.57;100.00
13968;BME280;39536;52.198;9.920;2024-01-30T03:16:36;101850.81;;;7.58;100.00
13968;BME280;39536;52.198;9.920;2024-01-30T03:19:02;101849.94;;;7.53;100.00
13968;BME280;39536;52.198;9.920;2024-01-30T03:21:29;101848.22;;;7.58;100.00
13968;BME280;39536;52.198;9.920;2024-01-30T03:23:56;101849.94;;;7.56;100.00
13968;BME280;39536;52.198;9.920;2024-01-30T03:26:22;101837.84;;;7.61;100.00
13968;BME280;39536;52.198;9.920;2024-01-30T03:28:49;101832.69;;;7.64;100.00
13968;BME280;39536;52.198;9.920;2024-01-30T03:31:17;101833.56;;;7.63;100.00
13968;BME280;39536;52.198;9.920;2024-01-30T03:33:46;101835.25;;;7.61;100.00
13968;BME280;39536;52.198;9.920;2024-01-30T03:36:13;101839.56;;;7.66;100.00
13968;BME280;39536;52.198;9.920;2024-01-30T03:38:39;101838.72;;;7.65;100.00
13968;BME280;39536;52.198;9.920;2024-01-30T03:41:07;101836.97;;;7.62;100.00
13968;BME280;39536;52.198;9.920;2024-01-30T03:43:34;101837.84;;;7.61;100.00
13968;BME280;39536;52.198;9.920;2024-01-30T03:46:01;101833.53;;;7.62;100.00
13968;BME280;39536;52.198;9.920;2024-01-30T03:48:29;101838.75;;;7.63;100.00
13968;BME280;39536;52.198;9.920;2024-01-30T03:50:56;101837.00;;;7.69;100.00
13968;BME280;39536;52.198;9.920;2024-01-30T03:53:22;101833.53;;;7.71;100.00
13968;BME280;39536;52.198;9.920;2024-01-30T03:55:49;101835.28;;;7.71;100.00
13968;BME280;39536;52.198;9.920;2024-01-30T03:58:15;101834.41;;;7.72;100.00
13968;BME280;39536;52.198;9.920;2024-01-30T04:00:42;101830.94;;;7.74;100.00
13968;BME280;39536;52.198;9.920;2024-01-30T04:03:08;101828.38;;;7.76;100.00
13968;BME280;39536;52.198;9.920;2024-01-30T04:05:36;101830.06;;;7.72;100.00
13968;BME280;39536;52.198;9.920;2024-01-30T04:08:03;101832.69;;;7.71;100.00
13968;BME280;39536;52.198;9.920;2024-01-30T04:10:30;101829.22;;;7.69;100.00
13968;BME280;39536;52.198;9.920;2024-01-30T04:12:57;101820.59;;;7.63;100.00
13968;BME280;39536;52.198;9.920;2024-01-30T04:15:23;101820.59;;;7.60;100.00
13968;BME280;39536;52.198;9.920;2024-01-30T04:17:50;101822.31;;;7.58;100.00
13968;BME280;39536;52.198;9.920;2024-01-30T04:20:16;101824.91;;;7.58;100.00
13968;BME280;39536;52.198;9.920;2024-01-30T04:22:45;101828.34;;;7.56;100.00
13968;BME280;39536;52.198;9.920;2024-01-30T04:25:13;101818.81;;;7.50;100.00
13968;BME280;39536;52.198;9.920;2024-01-30T04:27:40;101821.44;;;7.52;100.00
13968;BME280;39536;52.198;9.920;2024-01-30T04:30:07;101828.34;;;7.50;100.00
13968;BME280;39536;52.198;9.920;2024-01-30T04:32:34;101830.06;;;7.49;100.00
13968;BME280;39536;52.198;9.920;2024-01-30T04:35:01;101831.81;;;7.49;100.00
13968;BME280;39536;52.198;9.920;2024-01-30T04:37:27;101824.00;;;7.47;100.00
13968;BME280;39536;52.198;9.920;2024-01-30T04:39:56;101826.63;;;7.49;100.00
13968;BME280;39536;52.198;9.920;2024-01-30T04:42:22;101830.09;;;7.48;100.00
13968;BME280;39536;52.198;9.920;2024-01-30T04:44:49;101829.22;;;7.46;100.00
13968;BME280;39536;52.198;9.920;2024-01-30T04:47:16;101835.25;;;7.43;100.00
13968;BME280;39536;52.198;9.920;2024-01-30T04:49:43;101836.09;;;7.36;100.00
13968;BME280;39536;52.198;9.920;2024-01-30T04:52:09;101834.38;;;7.36;100.00
13968;BME280;39536;52.198;9.920;2024-01-30T04:54:36;101843.03;;;7.40;100.00
13968;BME280;39536;52.198;9.920;2024-01-30T04:57:04;101836.13;;;7.42;100.00
13968;BME280;39536;52.198;9.920;2024-01-30T04:59:34;101837.84;;;7.42;100.00
13968;BME280;39536;52.198;9.920;2024-01-30T05:02:01;101836.97;;;7.39;100.00
13968;BME280;39536;52.198;9.920;2024-01-30T05:04:27;101836.09;;;7.36;100.00
13968;BME280;39536;52.198;9.920;2024-01-30T05:06:54;101836.94;;;7.32;100.00
13968;BME280;39536;52.198;9.920;2024-01-30T05:09:21;101832.63;;;7.34;100.00
13968;BME280;39536;52.198;9.920;2024-01-30T05:11:47;101828.31;;;7.34;100.00
13968;BME280;39536;52.198;9.920;2024-01-30T05:14:15;101836.94;;;7.35;100.00
13968;BME280;39536;52.198;9.920;2024-01-30T05:16:42;101833.50;;;7.37;100.00
13968;BME280;39536;52.198;9.920;2024-01-30T05:19:12;101830.94;;;7.39;100.00
13968;BME280;39536;52.198;9.920;2024-01-30T05:21:39;101822.28;;;7.37;100.00
13968;BME280;39536;52.198;9.920;2024-01-30T05:24:06;101824.00;;;7.38;100.00
13968;BME280;39536;52.198;9.920;2024-01-30T05:26:32;101830.91;;;7.34;100.00
13968;BME280;39536;52.198;9.920;2024-01-30T05:28:58;101826.59;;;7.35;100.00
13968;BME280;39536;52.198;9.920;2024-01-30T05:31:29;101825.72;;;7.30;100.00
13968;BME280;39536;52.198;9.920;2024-01-30T05:33:56;101825.72;;;7.25;100.00
13968;BME280;39536;52.198;9.920;2024-01-30T05:36:22;101829.16;;;7.23;100.00
13968;BME280;39536;52.198;9.920;2024-01-30T05:38:49;101823.13;;;7.21;100.00
13968;BME280;39536;52.198;9.920;2024-01-30T05:41:15;101822.22;;;7.15;100.00
13968;BME280;39536;52.198;9.920;2024-01-30T05:43:42;101823.06;;;7.10;100.00
13968;BME280;39536;52.198;9.920;2024-01-30T05:46:08;101830.88;;;7.08;100.00
13968;BME280;39536;52.198;9.920;2024-01-30T05:48:36;101825.66;;;7.02;100.00
13968;BME280;39536;52.198;9.920;2024-01-30T05:51:03;101823.94;;;6.98;100.00
13968;BME280;39536;52.198;9.920;2024-01-30T05:53:30;101829.97;;;6.96;100.00
13968;BME280;39536;52.198;9.920;2024-01-30T05:55:56;101829.97;;;6.92;100.00
13968;BME280;39536;52.198;9.920;2024-01-30T05:58:23;101823.91;;;6.86;100.00
13968;BME280;39536;52.198;9.920;2024-01-30T06:00:50;101829.91;;;6.82;100.00
13968;BME280;39536;52.198;9.920;2024-01-30T06:03:16;101825.59;;;6.81;100.00
13968;BME280;39536;52.198;9.920;2024-01-30T06:05:44;101823.00;;;6.76;100.00
13968;BME280;39536;52.198;9.920;2024-01-30T06:08:10;101835.94;;;6.76;100.00
13968;BME280;39536;52.198;9.920;2024-01-30T06:10:37;101835.88;;;6.65;100.00
13968;BME280;39536;52.198;9.920;2024-01-30T06:13:04;101832.41;;;6.66;100.00
13968;BME280;39536;52.198;9.920;2024-01-30T06:15:30;101830.75;;;6.76;100.00
13968;BME280;39536;52.198;9.920;2024-01-30T06:17:57;101828.16;;;6.75;100.00
13968;BME280;39536;52.198;9.920;2024-01-30T06:20:24;101831.63;;;6.80;100.00
13968;BME280;39536;52.198;9.920;2024-01-30T06:22:52;101834.22;;;6.81;100.00
13968;BME280;39536;52.198;9.920;2024-01-30T06:25:19;101829.91;;;6.83;100.00
13968;BME280;39536;52.198;9.920;2024-01-30T06:27:45;101824.75;;;6.83;100.00
13968;BME280;39536;52.198;9.920;2024-01-30T06:30:12;101822.16;;;6.86;100.00
13968;BME280;39536;52.198;9.920;2024-01-30T06:32:39;101820.41;;;6.88;100.00
13968;BME280;39536;52.198;9.920;2024-01-30T06:35:06;101816.13;;;6.87;100.00
13968;BME280;39536;52.198;9.920;2024-01-30T06:37:33;101820.47;;;6.96;100.00
13968;BME280;39536;52.198;9.920;2024-01-30T06:40:01;101815.31;;;7.02;100.00
13968;BME280;39536;52.198;9.920;2024-01-30T06:42:27;101811.84;;;7.09;100.00
13968;BME280;39536;52.198;9.920;2024-01-30T06:44:54;101804.97;;;7.14;100.00
13968;BME280;39536;52.198;9.920;2024-01-30T06:47:20;101805.84;;;7.13;100.00
13968;BME280;39536;52.198;9.920;2024-01-30T06:49:47;101798.91;;;7.12;100.00
13968;BME280;39536;52.198;9.920;2024-01-30T06:52:14;101798.91;;;7.09;100.00
13968;BME280;39536;52.198;9.920;2024-01-30T06:54:40;101790.28;;;7.13;100.00
13968;BME280;39536;52.198;9.920;2024-01-30T06:57:08;101790.28;;;7.13;100.00
13968;BME280;39536;52.198;9.920;2024-01-30T06:59:37;101796.34;;;7.14;100.00
13968;BME280;39536;52.198;9.920;2024-01-30T07:02:08;101797.19;;;7.16;100.00
13968;BME280;39536;52.198;9.920;2024-01-30T07:04:36;101795.50;;;7.20;100.00
13968;BME280;39536;52.198;9.920;2024-01-30T07:07:04;101802.38;;;7.17;100.00
13968;BME280;39536;52.198;9.920;2024-01-30T07:09:37;101797.19;;;7.19;100.00
13968;BME280;39536;52.198;9.920;2024-01-30T07:12:04;101793.75;;;7.17;100.00
13968;BME280;39536;52.198;9.920;2024-01-30T07:14:32;101788.56;;;7.22;100.00
13968;BME280;39536;52.198;9.920;2024-01-30T07:16:59;101792.91;;;7.20;100.00
13968;BME280;39536;52.198;9.920;2024-01-30T07:19:26;101793.75;;;7.20;100.00
13968;BME280;39536;52.198;9.920;2024-01-30T07:21:52;101790.28;;;7.23;100.00
13968;BME280;39536;52.198;9.920;2024-01-30T07:24:19;101795.47;;;7.21;100.00
13968;BME280;39536;52.198;9.920;2024-01-30T07:26:47;101789.44;;;7.24;100.00
13968;BME280;39536;52.198;9.920;2024-01-30T07:29:14;101795.47;;;7.27;100.00
13968;BME280;39536;52.198;9.920;2024-01-30T07:31:42;101798.06;;;7.30;100.00
13968;BME280;39536;52.198;9.920;2024-01-30T07:34:09;101788.59;;;7.26;100.00
13968;BME280;39536;52.198;9.920;2024-01-30T07:36:35;101799.81;;;7.33;100.00
13968;BME280;39536;52.198;9.920;2024-01-30T07:39:02;101792.03;;;7.34;100.00
13968;BME280;39536;52.198;9.920;2024-01-30T07:41:28;101796.38;;;7.35;100.00
13968;BME280;39536;52.198;9.920;2024-01-30T07:43:55;101796.38;;;7.38;100.00
13968;BME280;39536;52.198;9.920;2024-01-30T07:46:21;101799.84;;;7.45;100.00
13968;BME280;39536;52.198;9.920;2024-01-30T07:48:49;101794.63;;;7.50;100.00
13968;BME280;39536;52.198;9.920;2024-01-30T07:51:16;101798.97;;;7.52;100.00
13968;BME280;39536;52.198;9.920;2024-01-30T07:53:42;101794.66;;;7.54;100.00
13968;BME280;39536;52.198;9.920;2024-01-30T07:56:10;101791.19;;;7.61;100.00
13968;BME280;39536;52.198;9.920;2024-01-30T07:58:37;101789.47;;;7.63;100.00
13968;BME280;39536;52.198;9.920;2024-01-30T08:01:03;101797.22;;;7.65;100.00
13968;BME280;39536;52.198;9.920;2024-01-30T08:03:30;101794.66;;;7.67;100.00
13968;BME280;39536;52.198;9.920;2024-01-30T08:05:58;101799.84;;;7.63;100.00
13968;BME280;39536;52.198;9.920;2024-01-30T08:08:24;101798.09;;;7.70;100.00
13968;BME280;39536;52.198;9.920;2024-01-30T08:10:52;101800.69;;;7.70;100.00
13968;BME280;39536;52.198;9.920;2024-01-30T08:13:18;101801.53;;;7.75;100.00
13968;BME280;39536;52.198;9.920;2024-01-30T08:15:45;101796.34;;;7.78;100.00
13968;BME280;39536;52.198;9.920;2024-01-30T08:18:11;101797.25;;;7.85;100.00
13968;BME280;39536;52.198;9.920;2024-01-30T08:20:38;101799.78;;;7.88;100.00
13968;BME280;39536;52.198;9.920;2024-01-30T08:23:06;101802.38;;;7.91;100.00
13968;BME280;39536;52.198;9.920;2024-01-30T08:25:31;101795.47;;;7.93;100.00
13968;BME280;39536;52.198;9.920;2024-01-30T08:27:58;101787.69;;;7.93;100.00
13968;BME280;39536;52.198;9.920;2024-01-30T08:30:25;101787.72;;;7.89;100.00
13968;BME280;39536;52.198;9.920;2024-01-30T08:32:51;101775.59;;;7.92;100.00
13968;BME280;39536;52.198;9.920;2024-01-30T08:35:18;101785.09;;;7.99;100.00
13968;BME280;39536;52.198;9.920;2024-01-30T08:37:44;101782.47;;;8.08;100.00
13968;BME280;39536;52.198;9.920;2024-01-30T08:40:13;101779.00;;;8.13;100.00
13968;BME280;39536;52.198;9.920;2024-01-30T08:42:39;101779.00;;;8.16;100.00
13968;BME280;39536;52.198;9.920;2024-01-30T08:45:07;101776.41;;;8.17;100.00
13968;BME280;39536;52.198;9.920;2024-01-30T08:47:34;101778.13;;;8.23;100.00
13968;BME280;39536;52.198;9.920;2024-01-30T08:50:01;101783.31;;;8.26;100.00
13968;BME280;39536;52.198;9.920;2024-01-30T08:52:29;101783.31;;;8.29;100.00
13968;BME280;39536;52.198;9.920;2024-01-30T08:54:57;101784.13;;;8.34;100.00
13968;BME280;39536;52.198;9.920;2024-01-30T08:57:25;101778.13;;;8.38;100.00
13968;BME280;39536;52.198;9.920;2024-01-30T08:59:53;101774.63;;;8.42;100.00
13968;BME280;39536;52.198;9.920;2024-01-30T09:02:20;101784.13;;;8.46;100.00
13968;BME280;39536;52.198;9.920;2024-01-30T09:04:47;101782.38;;;8.51;100.00
13968;BME280;39536;52.198;9.920;2024-01-30T09:07:13;101780.59;;;8.56;100.00
13968;BME280;39536;52.198;9.920;2024-01-30T09:09:40;101781.50;;;8.60;100.00
13968;BME280;39536;52.198;9.920;2024-01-30T09:12:07;101790.13;;;8.62;100.00
13968;BME280;39536;52.198;9.920;2024-01-30T09:14:36;101787.53;;;8.61;100.00
13968;BME280;39536;52.198;9.920;2024-01-30T09:17:03;101789.25;;;8.65;100.00
13968;BME280;39536;52.198;9.920;2024-01-30T09:19:30;101779.72;;;8.65;100.00
13968;BME280;39536;52.198;9.920;2024-01-30T09:21:56;101790.94;;;8.72;100.00
13968;BME280;39536;52.198;9.920;2024-01-30T09:24:23;101791.78;;;8.78;100.00
13968;BME280;39536;52.198;9.920;2024-01-30T09:26:49;101790.03;;;8.82;100.00
13968;BME280;39536;52.198;9.920;2024-01-30T09:29:16;101791.72;;;8.88;100.00
13968;BME280;39536;52.198;9.920;2024-01-30T09:31:44;101783.03;;;8.95;100.00
13968;BME280;39536;52.198;9.920;2024-01-30T09:34:11;101785.56;;;9.02;100.00
13968;BME280;39536;52.198;9.920;2024-01-30T09:36:37;101771.72;;;9.04;100.00
13968;BME280;39536;52.198;9.920;2024-01-30T09:39:04;101778.66;;;9.05;100.00
13968;BME280;39536;52.198;9.920;2024-01-30T09:41:32;101774.28;;;9.10;100.00
13968;BME280;39536;52.198;9.920;2024-01-30T09:44:00;101775.13;;;9.16;100.00
13968;BME280;39536;52.198;9.920;2024-01-30T09:46:31;101772.50;;;9.18;100.00
13968;BME280;39536;52.198;9.920;2024-01-30T09:49:00;101756.84;;;9.24;100.00
13968;BME280;39536;52.198;9.920;2024-01-30T09:51:29;101765.47;;;9.29;100.00
13968;BME280;39536;52.198;9.920;2024-01-30T09:53:56;101757.63;;;9.35;100.00
13968;BME280;39536;52.198;9.920;2024-01-30T09:56:23;101762.78;;;9.40;100.00
13968;BME280;39536;52.198;9.920;2024-01-30T09:58:49;101758.41;;;9.45;100.00
13968;BME280;39536;52.198;9.920;2024-01-30T10:01:17;101766.16;;;9.49;100.00
13968;BME280;39536;52.198;9.920;2024-01-30T10:03:44;101758.28;;;9.59;100.00
13968;BME280;39536;52.198;9.920;2024-01-30T10:06:12;101761.69;;;9.65;100.00
13968;BME280;39536;52.198;9.920;2024-01-30T10:08:42;101762.56;;;9.69;100.00
13968;BME280;39536;52.198;9.920;2024-01-30T10:11:09;101768.56;;;9.76;100.00
13968;BME280;39536;52.198;9.920;2024-01-30T10:13:35;101777.16;;;9.82;100.00
13968;BME280;39536;52.198;9.920;2024-01-30T10:16:02;101772.00;;;9.79;100.00
13968;BME280;39536;52.198;9.920;2024-01-30T10:18:31;101762.47;;;9.77;100.00
13968;BME280;39536;52.198;9.920;2024-01-30T10:20:58;101761.66;;;9.68;100.00
13968;BME280;39536;52.198;9.920;2024-01-30T10:23:27;101767.56;;;9.87;100.00
13968;BME280;39536;52.198;9.920;2024-01-30T10:25:54;101770.97;;;9.97;100.00
13968;BME280;39536;52.198;9.920;2024-01-30T10:28:20;101761.31;;;10.05;100.00
13968;BME280;39536;52.198;9.920;2024-01-30T10:30:57;101756.88;;;10.16;100.00
13968;BME280;39536;52.198;9.920;2024-01-30T10:33:24;101750.75;;;10.17;100.00
13968;BME280;39536;52.198;9.920;2024-01-30T10:35:50;101756.78;;;10.21;100.00
13968;BME280;39536;52.198;9.920;2024-01-30T10:38:19;101752.44;;;10.23;100.00
13968;BME280;39536;52.198;9.920;2024-01-30T10:40:48;101754.19;;;10.23;100.00
13968;BME280;39536;52.198;9.920;2024-01-30T10:43:21;101748.94;;;10.29;100.00
13968;BME280;39536;52.198;9.920;2024-01-30T10:45:52;101744.56;;;10.31;100.00
13968;BME280;39536;52.198;9.920;2024-01-30T10:48:21;101741.13;;;10.27;100.00
13968;BME280;39536;52.198;9.920;2024-01-30T10:50:54;101739.41;;;10.23;100.00
13968;BME280;39536;52.198;9.920;2024-01-30T10:53:22;101735.09;;;10.21;100.00
13968;BME280;39536;52.198;9.920;2024-01-30T10:55:51;101729.84;;;10.27;100.00
13968;BME280;39536;52.198;9.920;2024-01-30T10:58:18;101722.03;;;10.28;100.00
13968;BME280;39536;52.198;9.920;2024-01-30T11:00:45;101721.13;;;10.32;100.00
13968;BME280;39536;52.198;9.920;2024-01-30T11:03:12;101725.47;;;10.30;100.00
13968;BME280;39536;52.198;9.920;2024-01-30T11:05:40;101727.25;;;10.25;100.00
13968;BME280;39536;52.198;9.920;2024-01-30T11:08:11;101723.75;;;10.28;100.00
13968;BME280;39536;52.198;9.920;2024-01-30T11:10:44;101721.06;;;10.35;100.00
13968;BME280;39536;52.198;9.920;2024-01-30T11:13:13;101710.66;;;10.34;100.00
13968;BME280;39536;52.198;9.920;2024-01-30T11:15:40;101714.97;;;10.38;100.00
13968;BME280;39536;52.198;9.920;2024-01-30T11:18:06;101716.72;;;10.37;100.00
13968;BME280;39536;52.198;9.920;2024-01-30T11:20:33;101714.91;;;10.43;100.00
13968;BME280;39536;52.198;9.920;2024-01-30T11:23:01;101719.13;;;10.50;100.00
13968;BME280;39536;52.198;9.920;2024-01-30T11:25:32;101720.81;;;10.57;100.00
13968;BME280;39536;52.198;9.920;2024-01-30T11:27:58;101718.16;;;10.58;100.00
13968;BME280;39536;52.198;9.920;2024-01-30T11:30:28;101723.38;;;10.60;100.00
13968;BME280;39536;52.198;9.920;2024-01-30T11:32:59;101719.84;;;10.62;100.00
13968;BME280;39536;52.198;9.920;2024-01-30T11:35:25;101718.16;;;10.60;100.00
13968;BME280;39536;52.198;9.920;2024-01-30T11:37:52;101714.69;;;10.59;100.00
13968;BME280;39536;52.198;9.920;2024-01-30T11:40:21;101716.31;;;10.67;100.00
13968;BME280;39536;52.198;9.920;2024-01-30T11:42:48;101706.72;;;10.70;100.00
13968;BME280;39536;52.198;9.920;2024-01-30T11:45:15;101712.69;;;10.77;100.00
13968;BME280;39536;52.198;9.920;2024-01-30T11:47:45;101707.44;;;10.81;100.00
13968;BME280;39536;52.198;9.920;2024-01-30T11:50:11;101701.28;;;10.85;100.00
13968;BME280;39536;52.198;9.920;2024-01-30T11:52:38;101711.69;;;10.85;100.00
13968;BME280;39536;52.198;9.920;2024-01-30T11:55:05;101708.06;;;10.96;100.00
13968;BME280;39536;52.198;9.920;2024-01-30T11:57:33;101703.56;;;11.05;100.00
13968;BME280;39536;52.198;9.920;2024-01-30T12:00:00;101694.81;;;11.09;100.00
13968;BME280;39536;52.198;9.920;2024-01-30T12:02:27;101699.06;;;11.15;100.00
13968;BME280;39536;52.198;9.920;2024-01-30T12:04:54;101688.63;;;11.15;100.00
13968;BME280;39536;52.198;9.920;2024-01-30T12:07:21;101689.47;;;11.17;100.00
13968;BME280;39536;52.198;9.920;2024-01-30T12:09:53;101684.22;;;11.20;100.00
13968;BME280;39536;52.198;9.920;2024-01-30T12:12:21;101684.09;;;11.28;100.00
13968;BME280;39536;52.198;9.920;2024-01-30T12:14:49;101677.06;;;11.31;100.00
13968;BME280;39536;52.198;9.920;2024-01-30T12:17:23;101677.03;;;11.35;100.00
13968;BME280;39536;52.198;9.920;2024-01-30T12:19:50;101669.03;;;11.44;100.00
13968;BME280;39536;52.198;9.920;2024-01-30T12:22:18;101672.34;;;11.53;100.00
13968;BME280;39536;52.198;9.920;2024-01-30T12:24:45;101677.38;;;11.63;100.00
13968;BME280;39536;52.198;9.920;2024-01-30T12:27:11;101674.66;;;11.67;100.00
13968;BME280;39536;52.198;9.920;2024-01-30T12:29:41;101669.22;;;11.79;100.00
13968;BME280;39536;52.198;9.920;2024-01-30T12:32:08;101671.66;;;11.90;100.00
13968;BME280;39536;52.198;9.920;2024-01-30T12:34:40;101673.16;;;12.02;100.00
13968;BME280;39536;52.198;9.920;2024-01-30T12:37:06;101677.19;;;12.18;100.00
13968;BME280;39536;52.198;9.920;2024-01-30T12:39:35;101681.06;;;12.41;100.00
13968;BME280;39536;52.198;9.920;2024-01-30T12:42:02;101676.28;;;12.60;100.00
13968;BME280;39536;52.198;9.920;2024-01-30T12:44:29;101676.59;;;12.83;100.00
13968;BME280;39536;52.198;9.920;2024-01-30T12:46:55;101678.13;;;12.93;100.00